createdAt,value
2018-06-08T00:01:46.610Z,23.03
2018-06-08T00:04:15.553Z,22.97
2018-06-08T00:06:44.412Z,22.90
2018-06-08T00:09:13.317Z,22.85
2018-06-08T00:11:42.207Z,22.87
2018-06-08T00:14:11.105Z,22.87
2018-06-08T00:16:41.216Z,22.91
2018-06-08T00:19:10.107Z,22.93
2018-06-08T00:21:39.000Z,22.86
2018-06-08T00:24:07.949Z,22.85
2018-06-08T00:26:36.889Z,22.95
2018-06-08T00:29:05.801Z,22.95
2018-06-08T00:31:34.807Z,22.92
2018-06-08T00:34:03.652Z,22.97
2018-06-08T00:36:32.532Z,22.88
2018-06-08T00:39:01.417Z,22.84
2018-06-08T00:41:30.379Z,22.88
2018-06-08T00:43:59.275Z,23.03
2018-06-08T00:46:28.077Z,22.96
2018-06-08T00:48:57.010Z,23.11
2018-06-08T00:51:25.918Z,22.91
2018-06-08T00:53:54.809Z,22.86
2018-06-08T00:57:05.600Z,22.86
2018-06-08T00:59:34.491Z,22.85
2018-06-08T01:02:03.357Z,22.79
2018-06-08T01:04:32.229Z,22.80
2018-06-08T01:07:01.121Z,22.87
2018-06-08T01:09:30.030Z,22.74
2018-06-08T01:11:58.920Z,22.63
2018-06-08T01:14:34.535Z,22.56
2018-06-08T01:17:03.489Z,22.65
2018-06-08T01:19:33.074Z,22.54
2018-06-08T01:22:02.352Z,22.48
2018-06-08T01:24:31.488Z,22.51
2018-06-08T01:27:00.386Z,22.54
2018-06-08T01:29:29.442Z,22.46
2018-06-08T01:31:58.311Z,22.43
2018-06-08T01:34:27.165Z,22.45
2018-06-08T01:36:56.038Z,22.65
2018-06-08T01:39:24.905Z,22.43
2018-06-08T01:41:53.864Z,22.36
2018-06-08T01:44:22.747Z,22.34
2018-06-08T01:46:51.581Z,22.36
2018-06-08T01:49:20.466Z,22.36
2018-06-08T01:51:49.338Z,22.34
2018-06-08T01:54:18.222Z,22.28
2018-06-08T01:56:47.085Z,22.31
2018-06-08T01:59:15.940Z,22.22
2018-06-08T02:01:44.832Z,22.21
2018-06-08T02:04:13.719Z,22.22
2018-06-08T02:06:42.626Z,22.09
2018-06-08T02:09:11.488Z,22.02
2018-06-08T02:11:40.372Z,22.03
2018-06-08T02:14:09.236Z,22.07
2018-06-08T02:16:38.109Z,22.42
2018-06-08T02:19:06.972Z,22.19
2018-06-08T02:21:35.879Z,22.16
2018-06-08T02:24:04.746Z,22.11
2018-06-08T02:26:33.632Z,22.09
2018-06-08T02:29:02.511Z,22.11
2018-06-08T02:31:31.412Z,22.09
2018-06-08T02:34:00.326Z,22.05
2018-06-08T02:36:29.194Z,22.01
2018-06-08T02:38:58.073Z,22.01
2018-06-08T02:41:26.930Z,22.07
2018-06-08T02:43:55.794Z,22.05
2018-06-08T02:46:24.667Z,22.00
2018-06-08T02:48:53.568Z,21.95
2018-06-08T02:51:22.431Z,21.92
2018-06-08T02:53:51.375Z,21.90
2018-06-08T02:56:20.253Z,22.20
2018-06-08T02:58:49.133Z,21.95
2018-06-08T03:01:18.015Z,21.88
2018-06-08T03:03:46.914Z,21.86
2018-06-08T03:06:15.797Z,21.80
2018-06-08T03:08:44.834Z,21.73
2018-06-08T03:11:13.760Z,21.64
2018-06-08T03:13:42.671Z,21.58
2018-06-08T03:16:11.581Z,21.58
2018-06-08T03:18:40.442Z,21.46
2018-06-08T03:21:09.396Z,21.43
2018-06-08T03:23:38.391Z,21.47
2018-06-08T03:26:07.233Z,21.44
2018-06-08T03:28:36.107Z,21.35
2018-06-08T03:31:05.009Z,21.25
2018-06-08T03:33:33.897Z,21.27
2018-06-08T03:36:02.875Z,21.24
2018-06-08T03:38:31.705Z,21.20
2018-06-08T03:41:00.629Z,21.15
2018-06-08T03:43:29.503Z,21.07
2018-06-08T03:45:58.454Z,21.00
2018-06-08T03:48:27.294Z,20.98
2018-06-08T03:50:56.143Z,20.98
2018-06-08T03:53:25.045Z,20.99
2018-06-08T03:55:54.038Z,21.00
2018-06-08T03:58:22.878Z,21.03
2018-06-08T04:00:51.770Z,21.04
2018-06-08T04:03:20.655Z,21.25
2018-06-08T04:05:49.631Z,21.35
2018-06-08T04:08:18.519Z,21.14
2018-06-08T04:10:47.438Z,21.08
2018-06-08T04:13:16.283Z,21.06
2018-06-08T04:15:45.216Z,20.99
2018-06-08T04:18:14.131Z,21.00
2018-06-08T04:20:42.991Z,21.08
2018-06-08T04:23:12.004Z,21.05
2018-06-08T04:25:40.914Z,21.00
2018-06-08T04:28:09.729Z,20.92
2018-06-08T04:30:38.605Z,20.88
2018-06-08T04:33:07.495Z,20.88
2018-06-08T04:35:36.349Z,20.90
2018-06-08T04:38:05.273Z,20.86
2018-06-08T04:40:34.131Z,20.82
2018-06-08T04:43:03.104Z,20.80
2018-06-08T04:45:31.994Z,21.15
2018-06-08T04:48:00.831Z,20.81
2018-06-08T04:50:29.724Z,20.81
2018-06-08T04:52:58.596Z,20.80
2018-06-08T04:55:27.503Z,20.76
2018-06-08T04:57:56.408Z,20.73
2018-06-08T05:00:25.302Z,20.75
2018-06-08T05:02:54.173Z,20.79
2018-06-08T05:05:23.029Z,20.83
2018-06-08T05:07:51.883Z,20.79
2018-06-08T05:10:20.742Z,21.05
2018-06-08T05:12:49.605Z,20.80
2018-06-08T05:15:18.465Z,20.77
2018-06-08T05:17:47.357Z,21.06
2018-06-08T05:20:16.378Z,20.75
2018-06-08T05:22:45.264Z,20.66
2018-06-08T05:25:14.145Z,20.64
2018-06-08T05:27:43.005Z,21.02
2018-06-08T05:30:12.426Z,20.70
2018-06-08T05:32:41.313Z,20.71
2018-06-08T05:35:10.208Z,20.71
2018-06-08T05:37:39.084Z,20.72
2018-06-08T05:40:07.985Z,20.70
2018-06-08T05:42:36.906Z,20.65
2018-06-08T05:45:05.747Z,20.69
2018-06-08T05:47:34.606Z,20.57
2018-06-08T05:50:03.462Z,20.52
2018-06-08T05:52:32.338Z,20.48
2018-06-08T05:55:01.224Z,20.50
2018-06-08T05:57:30.069Z,20.58
2018-06-08T05:59:58.967Z,20.67
2018-06-08T06:02:28.852Z,20.62
2018-06-08T06:04:57.715Z,20.88
2018-06-08T06:07:44.262Z,20.67
2018-06-08T06:10:13.237Z,20.56
2018-06-08T06:12:42.140Z,20.53
2018-06-08T06:15:11.092Z,20.50
2018-06-08T06:17:40.048Z,20.84
2018-06-08T06:20:08.990Z,20.58
2018-06-08T06:22:37.884Z,20.63
2018-06-08T06:25:06.803Z,20.62
2018-06-08T06:27:35.770Z,20.55
2018-06-08T06:30:05.668Z,20.51
2018-06-08T06:32:34.486Z,20.51
2018-06-08T06:35:03.423Z,20.49
2018-06-08T06:37:32.504Z,20.51
2018-06-08T06:40:01.417Z,20.45
2018-06-08T06:42:30.381Z,20.47
2018-06-08T06:44:59.347Z,20.55
2018-06-08T06:47:28.208Z,20.56
2018-06-08T06:49:57.093Z,20.52
2018-06-08T06:52:26.018Z,20.44
2018-06-08T06:54:54.991Z,20.49
2018-06-08T06:57:23.867Z,20.56
2018-06-08T06:59:52.812Z,20.62
2018-06-08T07:02:21.694Z,20.65
2018-06-08T07:04:50.645Z,20.72
2018-06-08T07:07:19.606Z,20.98
2018-06-08T07:09:48.511Z,20.85
2018-06-08T07:12:17.508Z,20.83
2018-06-08T07:14:46.478Z,20.73
2018-06-08T07:17:15.512Z,20.71
2018-06-08T07:19:44.497Z,20.71
2018-06-08T07:22:13.396Z,20.71
2018-06-08T07:24:42.325Z,20.99
2018-06-08T07:27:11.258Z,20.75
2018-06-08T07:29:40.232Z,20.84
2018-06-08T07:32:09.137Z,20.83
2018-06-08T07:34:38.022Z,20.77
2018-06-08T07:37:06.998Z,20.84
2018-06-08T07:39:35.835Z,20.87
2018-06-08T07:42:04.789Z,20.83
2018-06-08T07:44:33.711Z,20.77
2018-06-08T07:47:02.691Z,20.79
2018-06-08T07:49:31.525Z,20.80
2018-06-08T07:52:00.470Z,20.82
2018-06-08T07:54:29.425Z,20.84
2018-06-08T07:57:02.252Z,20.90
2018-06-08T07:59:31.764Z,21.13
2018-06-08T08:02:00.821Z,20.96
2018-06-08T08:04:29.845Z,20.86
2018-06-08T08:06:58.825Z,20.75
2018-06-08T08:09:27.859Z,20.73
2018-06-08T08:11:56.972Z,20.69
2018-06-08T08:14:26.016Z,20.69
2018-06-08T08:16:54.909Z,20.69
2018-06-08T08:19:24.015Z,20.69
2018-06-08T08:21:52.914Z,20.62
2018-06-08T08:24:21.794Z,20.60
2018-06-08T08:26:50.715Z,20.60
2018-06-08T08:29:19.636Z,20.57
2018-06-08T08:31:48.732Z,20.55
2018-06-08T08:34:17.716Z,20.47
2018-06-08T08:36:46.613Z,20.42
2018-06-08T08:39:15.607Z,20.39
2018-06-08T08:41:44.666Z,20.39
2018-06-08T08:44:13.528Z,20.42
2018-06-08T08:46:42.470Z,20.49
2018-06-08T08:49:11.386Z,20.59
2018-06-08T08:51:40.304Z,20.56
2018-06-08T08:54:09.186Z,20.65
2018-06-08T08:56:38.088Z,20.59
2018-06-08T08:59:06.970Z,20.58
2018-06-08T09:01:35.845Z,20.56
2018-06-08T09:04:04.943Z,20.56
2018-06-08T09:06:33.855Z,20.56
2018-06-08T09:09:02.751Z,20.53
2018-06-08T09:11:31.692Z,20.53
2018-06-08T09:14:00.580Z,20.58
2018-06-08T09:16:29.502Z,20.59
2018-06-08T09:18:58.521Z,20.56
2018-06-08T09:21:27.454Z,20.54
2018-06-08T09:23:56.654Z,20.57
2018-06-08T09:26:25.774Z,20.52
2018-06-08T09:28:54.746Z,20.52
2018-06-08T09:31:23.765Z,20.81
2018-06-08T09:33:52.674Z,20.60
2018-06-08T09:36:21.554Z,20.60
2018-06-08T09:38:50.560Z,20.67
2018-06-08T09:41:19.460Z,20.71
2018-06-08T09:43:48.367Z,20.76
2018-06-08T09:46:17.317Z,20.69
2018-06-08T09:48:46.212Z,20.66
2018-06-08T09:51:15.253Z,20.69
2018-06-08T09:53:44.106Z,20.73
2018-06-08T09:56:13.027Z,21.04
2018-06-08T09:58:41.927Z,20.82
2018-06-08T10:01:10.874Z,20.76
2018-06-08T10:03:39.856Z,20.66
2018-06-08T10:06:08.860Z,20.62
2018-06-08T10:08:37.967Z,20.58
2018-06-08T10:11:06.913Z,20.65
2018-06-08T10:13:35.942Z,20.63
2018-06-08T10:16:06.964Z,20.62
2018-06-08T10:18:33.747Z,20.51
2018-06-08T10:21:02.727Z,20.54
2018-06-08T10:23:31.616Z,20.53
2018-06-08T10:26:00.647Z,20.54
2018-06-08T10:28:29.731Z,20.46
2018-06-08T10:30:58.614Z,20.37
2018-06-08T10:33:27.496Z,20.36
2018-06-08T10:35:56.365Z,20.24
2018-06-08T10:38:25.280Z,20.22
2018-06-08T10:40:54.609Z,20.22
2018-06-08T10:43:23.477Z,20.22
2018-06-08T10:45:52.385Z,20.21
2018-06-08T10:48:21.281Z,20.16
2018-06-08T10:50:50.208Z,20.15
2018-06-08T10:53:19.083Z,20.36
2018-06-08T10:55:47.990Z,20.14
2018-06-08T10:58:16.996Z,20.10
2018-06-08T11:00:45.875Z,20.14
2018-06-08T11:03:14.782Z,20.44
2018-06-08T11:05:44.170Z,20.41
2018-06-08T11:08:13.196Z,20.47
2018-06-08T11:10:42.148Z,20.55
2018-06-08T11:13:11.079Z,20.60
2018-06-08T11:15:40.031Z,20.76
2018-06-08T11:18:08.968Z,20.86
2018-06-08T11:20:37.954Z,21.02
2018-06-08T11:23:06.868Z,21.14
2018-06-08T11:25:35.754Z,21.20
2018-06-08T11:28:04.644Z,21.31
2018-06-08T11:30:33.541Z,21.46
2018-06-08T11:33:02.428Z,21.61
2018-06-08T11:35:31.285Z,21.77
2018-06-08T11:38:00.219Z,21.84
2018-06-08T11:40:29.214Z,21.98
2018-06-08T11:42:58.035Z,22.08
2018-06-08T11:45:27.037Z,22.25
2018-06-08T11:47:55.922Z,22.35
2018-06-08T11:50:26.304Z,22.47
2018-06-08T11:52:53.736Z,22.62
2018-06-08T11:55:22.578Z,22.85
2018-06-08T11:57:51.425Z,22.88
2018-06-08T12:00:20.340Z,23.06
2018-06-08T12:02:49.283Z,23.15
2018-06-08T12:05:18.140Z,23.25
2018-06-08T12:07:47.049Z,23.34
2018-06-08T12:10:15.894Z,23.44
2018-06-08T12:12:45.010Z,23.62
2018-06-08T12:15:13.774Z,23.78
2018-06-08T12:17:42.621Z,23.94
2018-06-08T12:20:11.552Z,24.07
2018-06-08T12:22:40.566Z,24.34
2018-06-08T12:25:09.441Z,24.50
2018-06-08T12:27:38.347Z,24.67
2018-06-08T12:30:07.180Z,24.79
2018-06-08T12:32:36.117Z,24.86
2018-06-08T12:35:05.051Z,25.01
2018-06-08T12:37:33.872Z,24.90
2018-06-08T12:40:02.780Z,24.78
2018-06-08T12:42:31.665Z,24.64
2018-06-08T12:45:00.601Z,24.59
2018-06-08T12:47:29.471Z,24.44
2018-06-08T12:49:58.309Z,24.43
2018-06-08T12:52:27.255Z,24.40
2018-06-08T12:54:56.106Z,24.42
2018-06-08T12:57:24.974Z,24.27
2018-06-08T12:59:54.074Z,24.31
2018-06-08T13:02:22.991Z,24.42
2018-06-08T13:04:51.940Z,24.43
2018-06-08T13:07:20.868Z,24.58
2018-06-08T13:09:49.734Z,24.44
2018-06-08T13:12:18.593Z,24.43
2018-06-08T13:14:47.540Z,24.50
2018-06-08T13:17:16.385Z,24.67
2018-06-08T13:19:45.241Z,24.78
2018-06-08T13:22:14.341Z,24.85
2018-06-08T13:24:43.113Z,24.91
2018-06-08T13:27:11.984Z,24.90
2018-06-08T13:29:40.968Z,24.84
2018-06-08T13:32:09.861Z,24.86
2018-06-08T13:34:38.826Z,24.78
2018-06-08T13:37:07.729Z,24.87
2018-06-08T13:39:36.784Z,24.76
2018-06-08T13:42:07.101Z,24.76
2018-06-08T13:44:36.077Z,24.54
2018-06-08T13:47:05.400Z,24.62
2018-06-08T13:49:34.271Z,24.79
2018-06-08T13:52:03.357Z,24.88
2018-06-08T13:54:33.291Z,24.90
2018-06-08T13:57:02.635Z,24.93
2018-06-08T13:59:31.753Z,24.96
2018-06-08T14:02:01.661Z,25.00
2018-06-08T14:04:30.435Z,25.25
2018-06-08T14:06:59.364Z,25.42
2018-06-08T14:09:28.301Z,25.57
2018-06-08T14:11:57.300Z,25.75
2018-06-08T14:14:26.178Z,25.84
2018-06-08T14:16:55.128Z,25.84
2018-06-08T14:19:24.034Z,25.72
2018-06-08T14:21:53.134Z,25.65
2018-06-08T14:24:22.052Z,25.65
2018-06-08T14:26:51.025Z,25.48
2018-06-08T14:29:19.955Z,25.26
2018-06-08T14:31:48.883Z,25.05
2018-06-08T14:34:17.795Z,24.84
2018-06-08T14:36:46.754Z,24.63
2018-06-08T14:39:15.684Z,24.52
2018-06-08T14:41:44.576Z,24.48
2018-06-08T14:44:13.498Z,24.35
2018-06-08T14:46:42.430Z,24.26
2018-06-08T14:49:11.370Z,24.18
2018-06-08T14:51:40.357Z,24.17
2018-06-08T14:54:09.269Z,24.20
2018-06-08T14:56:38.192Z,24.12
2018-06-08T14:59:07.167Z,24.06
2018-06-08T15:01:36.111Z,24.08
2018-06-08T15:04:05.007Z,24.01
2018-06-08T15:06:33.975Z,24.00
2018-06-08T15:09:02.921Z,24.05
2018-06-08T15:11:31.856Z,24.11
2018-06-08T15:14:00.744Z,24.26
2018-06-08T15:16:29.720Z,24.39
2018-06-08T15:18:58.652Z,24.48
2018-06-08T15:21:27.583Z,24.61
2018-06-08T15:23:56.463Z,24.60
2018-06-08T15:26:25.490Z,24.63
2018-06-08T15:28:54.432Z,24.68
2018-06-08T15:31:23.411Z,24.66
2018-06-08T15:33:52.350Z,24.63
2018-06-08T15:36:21.266Z,24.59
2018-06-08T15:38:50.188Z,24.59
2018-06-08T15:41:19.146Z,24.70
2018-06-08T15:43:48.126Z,24.79
2018-06-08T15:46:17.006Z,24.81
2018-06-08T15:48:45.874Z,24.86
2018-06-08T15:51:14.829Z,24.78
2018-06-08T15:53:43.676Z,24.88
2018-06-08T15:56:12.694Z,24.91
2018-06-08T15:58:41.526Z,24.93
2018-06-08T16:01:10.516Z,24.90
2018-06-08T16:03:39.430Z,24.92
2018-06-08T16:06:08.487Z,24.89
2018-06-08T16:08:37.520Z,24.85
2018-06-08T16:11:06.419Z,24.76
2018-06-08T16:13:35.382Z,24.64
2018-06-08T16:16:04.356Z,24.56
2018-06-08T16:18:33.293Z,24.49
2018-06-08T16:21:02.260Z,24.48
2018-06-08T16:23:31.151Z,24.43
2018-06-08T16:26:00.174Z,24.40
2018-06-08T16:28:29.214Z,24.34
2018-06-08T16:30:58.204Z,24.33
2018-06-08T16:33:29.487Z,24.34
2018-06-08T16:35:58.367Z,24.35
2018-06-08T16:38:27.335Z,24.40
2018-06-08T16:40:56.345Z,24.45
2018-06-08T16:43:25.215Z,24.49
2018-06-08T16:45:54.161Z,24.54
2018-06-08T16:48:23.129Z,24.67
2018-06-08T16:50:52.103Z,24.55
2018-06-08T16:53:21.064Z,24.50
2018-06-08T16:55:50.158Z,24.54
2018-06-08T16:58:19.093Z,24.35
2018-06-08T17:00:47.979Z,24.25
2018-06-08T17:03:16.960Z,24.13
2018-06-08T17:05:45.856Z,24.20
2018-06-08T17:08:14.802Z,24.00
2018-06-08T17:10:46.029Z,23.94
2018-06-08T17:13:15.180Z,23.85
2018-06-08T17:15:44.158Z,23.80
2018-06-08T17:18:13.061Z,23.77
2018-06-08T17:20:41.964Z,23.77
2018-06-08T17:23:13.563Z,23.75
2018-06-08T17:25:42.522Z,23.84
2018-06-08T17:28:11.510Z,23.65
2018-06-08T17:30:40.496Z,23.75
2018-06-08T17:33:10.134Z,23.54
2018-06-08T17:35:39.377Z,23.45
2018-06-08T17:38:08.259Z,23.40
2018-06-08T17:40:37.230Z,23.32
2018-06-08T17:43:06.357Z,23.24
2018-06-08T17:45:36.996Z,23.15
2018-06-08T17:48:05.891Z,23.07
2018-06-08T17:50:34.849Z,23.03
2018-06-08T17:53:03.977Z,22.97
2018-06-08T17:55:32.847Z,22.90
2018-06-08T17:58:01.917Z,22.78
2018-06-08T18:00:30.885Z,22.70
2018-06-08T18:02:59.839Z,22.67
2018-06-08T18:05:28.709Z,22.65
2018-06-08T18:07:57.848Z,22.62
2018-06-08T18:10:27.039Z,22.52
2018-06-08T18:12:55.977Z,22.50
2018-06-08T18:15:25.015Z,22.52
2018-06-08T18:17:54.245Z,22.51
2018-06-08T18:20:22.990Z,22.47
2018-06-08T18:22:51.841Z,22.40
2018-06-08T18:25:20.790Z,22.36
2018-06-08T18:27:50.634Z,22.29
2018-06-08T18:30:19.626Z,22.20
2018-06-08T18:32:48.537Z,22.20
2018-06-08T18:35:17.572Z,22.23
2018-06-08T18:37:46.420Z,22.18
2018-06-08T18:40:15.424Z,22.17
2018-06-08T18:42:44.353Z,22.16
2018-06-08T18:45:13.431Z,22.15
2018-06-08T18:47:42.382Z,22.09
2018-06-08T18:50:11.205Z,22.08
2018-06-08T18:52:40.105Z,22.12
2018-06-08T18:55:09.073Z,22.04
2018-06-08T18:57:38.012Z,22.00
2018-06-08T19:00:06.911Z,21.97
2018-06-08T19:02:36.121Z,21.98
2018-06-08T19:05:05.074Z,21.94
2018-06-08T19:07:34.009Z,21.89
2018-06-08T19:10:03.009Z,21.83
2018-06-08T19:12:32.307Z,21.79
2018-06-08T19:15:01.329Z,21.90
2018-06-08T19:17:30.159Z,21.94
2018-06-08T19:20:00.911Z,21.77
2018-06-08T19:22:29.815Z,21.74
2018-06-08T19:24:58.747Z,21.70
2018-06-08T19:27:27.733Z,21.60
2018-06-08T19:29:56.854Z,21.55
2018-06-08T19:32:26.039Z,21.50
2018-06-08T19:34:54.921Z,21.45
2018-06-08T19:37:23.925Z,21.47
2018-06-08T19:39:54.352Z,21.36
2018-06-08T19:42:23.256Z,21.52
2018-06-08T19:44:52.303Z,21.38
2018-06-08T19:47:21.203Z,21.38
2018-06-08T19:49:50.197Z,21.38
2018-06-08T19:52:19.203Z,21.36
2018-06-08T19:54:48.083Z,21.24
2018-06-08T19:57:17.079Z,21.19
2018-06-08T19:59:46.100Z,21.12
2018-06-08T20:02:14.986Z,21.09
2018-06-08T20:04:43.884Z,21.05
2018-06-08T20:07:12.741Z,21.04
2018-06-08T20:09:41.740Z,20.99
2018-06-08T20:12:10.580Z,20.97
2018-06-08T20:14:39.454Z,20.97
2018-06-08T20:17:08.306Z,20.94
2018-06-08T20:19:37.226Z,20.94
2018-06-08T20:22:06.182Z,20.90
2018-06-08T20:24:35.274Z,20.88
2018-06-08T20:27:04.152Z,20.88
2018-06-08T20:29:33.148Z,20.85
2018-06-08T20:32:02.446Z,20.88
2018-06-08T20:34:31.312Z,20.83
2018-06-08T20:37:00.180Z,20.80
2018-06-08T20:39:29.135Z,20.81
2018-06-08T20:41:57.994Z,20.77
2018-06-08T20:44:26.913Z,20.71
2018-06-08T20:46:55.783Z,20.74
2018-06-08T20:49:24.634Z,20.70
2018-06-08T20:51:53.523Z,20.66
2018-06-08T20:54:22.896Z,20.62
2018-06-08T20:57:11.427Z,20.65
2018-06-08T20:59:40.378Z,20.57
2018-06-08T21:02:09.473Z,20.77
2018-06-08T21:04:38.313Z,20.65
2018-06-08T21:07:07.226Z,20.61
2018-06-08T21:09:36.100Z,20.56
2018-06-08T21:12:04.999Z,20.50
2018-06-08T21:14:33.985Z,20.57
2018-06-08T21:17:03.077Z,20.48
2018-06-08T21:19:31.915Z,20.45
2018-06-08T21:22:01.013Z,20.44
2018-06-08T21:24:30.116Z,20.42
2018-06-08T21:26:59.103Z,20.38
2018-06-08T21:29:28.120Z,20.31
2018-06-08T21:31:57.141Z,20.30
2018-06-08T21:34:26.228Z,20.28
2018-06-08T21:36:55.188Z,20.27
2018-06-08T21:39:24.175Z,20.25
2018-06-08T21:41:53.424Z,20.22
2018-06-08T21:44:22.457Z,20.20
2018-06-08T21:46:51.400Z,20.17
2018-06-08T21:49:20.440Z,20.27
2018-06-08T21:51:49.459Z,20.12
2018-06-08T21:54:18.810Z,20.14
2018-06-08T21:56:47.862Z,20.12
2018-06-08T21:59:16.968Z,20.06
2018-06-08T22:01:46.003Z,20.06
2018-06-08T22:04:14.974Z,20.20
2018-06-08T22:06:44.027Z,20.10
2018-06-08T22:09:15.915Z,20.11
2018-06-08T22:11:44.762Z,20.23
2018-06-08T22:14:13.728Z,20.07
2018-06-08T22:16:42.749Z,20.05
2018-06-08T22:19:11.637Z,19.97
2018-06-08T22:21:40.556Z,19.96
2018-06-08T22:24:09.514Z,19.98
2018-06-08T22:26:38.445Z,19.95
2018-06-08T22:29:07.348Z,19.94
2018-06-08T22:31:36.295Z,19.88
2018-06-08T22:34:05.355Z,19.90
2018-06-08T22:36:34.262Z,19.89
2018-06-08T22:39:03.213Z,19.85
2018-06-08T22:41:32.146Z,19.81
2018-06-08T22:44:01.090Z,19.78
2018-06-08T22:46:30.013Z,19.79
2018-06-08T22:48:58.978Z,19.76
2018-06-08T22:51:27.925Z,19.96
2018-06-08T22:53:56.876Z,19.82
2018-06-08T22:56:25.848Z,19.83
2018-06-08T22:58:54.778Z,19.84
2018-06-08T23:01:23.680Z,19.85
2018-06-08T23:03:52.718Z,19.84
2018-06-08T23:06:21.570Z,19.83
2018-06-08T23:08:50.484Z,19.78
2018-06-08T23:11:19.486Z,19.73
2018-06-08T23:13:48.402Z,19.74
2018-06-08T23:16:17.379Z,19.75
2018-06-08T23:18:46.176Z,19.73
2018-06-08T23:21:15.092Z,19.76
2018-06-08T23:23:43.970Z,19.78
2018-06-08T23:26:13.072Z,19.77
2018-06-08T23:28:42.006Z,19.75
2018-06-08T23:31:10.908Z,19.75
2018-06-08T23:33:39.778Z,19.74
2018-06-08T23:36:08.704Z,19.74
2018-06-08T23:38:37.669Z,19.75
2018-06-08T23:41:06.484Z,19.77
2018-06-08T23:43:35.371Z,19.75
2018-06-08T23:46:04.307Z,19.75
2018-06-08T23:48:33.256Z,19.74
2018-06-08T23:51:02.101Z,19.71
2018-06-08T23:53:30.985Z,19.84
2018-06-08T23:55:59.907Z,19.92
2018-06-08T23:58:28.867Z,19.72
